ZSPD/PVG METAR and TAF weather

Enter ICAO airport designator
Station Type Date Time Source
ZSPD METAR 2019/10/15 04:30 UTC NOAA

ZSPD 150430Z 35008MPS 320V020 9999 BKN040 19/09 Q1029 NOSIG


Station Type Date Time Source
ZSPD Decoded METAR 2019/10/15 04:30 UTC NOAA

Shanghai / Pudong, China (ZSPD) 31-07N 121-46E
Oct 15, 2019 - 12:30 AM EDT / 2019.10.15 0430 UTC
Wind: from the N (350 degrees) at 18 MPH (16 KT) (direction variable):0
Visibility: greater than 7 mile(s):0
Sky conditions: mostly cloudy
Temperature: 66 F (19 C)
Dew Point: 48 F (9 C)
Relative Humidity: 52%
Pressure (altimeter): 30.39 in. Hg (1029 hPa)
ob: ZSPD 150430Z 35008MPS 320V020 9999 BKN040 19/09 Q1029 NOSIG
cycle: 4

Station Type Date Time Source
ZSPD TAF 2019/10/15 06:03 UTC NOAA

TAF ZSPD 150315Z 1506/1606 01006G12MPS 5000 BR BKN020 BKN040 TX20/1506Z TN15/1521Z

Example: see airport list